createdAt,value
2022-09-04T00:00:15.114Z,99.90
2022-09-04T00:03:02.066Z,99.90
2022-09-04T00:05:35.807Z,99.90
2022-09-04T00:08:17.761Z,99.90
2022-09-04T00:11:08.930Z,99.90
2022-09-04T00:13:52.988Z,99.90
2022-09-04T00:16:41.663Z,99.90
2022-09-04T00:19:41.764Z,99.90
2022-09-04T00:22:57.271Z,99.90
2022-09-04T00:25:36.179Z,99.90
2022-09-04T00:28:35.685Z,99.90
2022-09-04T00:31:23.571Z,99.90
2022-09-04T00:34:19.603Z,99.90
2022-09-04T00:36:58.779Z,99.90
2022-09-04T00:39:58.124Z,99.90
2022-09-04T00:42:59.104Z,99.90
2022-09-04T00:45:42.011Z,99.90
2022-09-04T00:48:15.510Z,99.90
2022-09-04T00:51:13.452Z,99.90
2022-09-04T00:54:11.384Z,99.90
2022-09-04T00:56:54.962Z,99.90
2022-09-04T01:00:30.688Z,99.90
2022-09-04T01:03:44.592Z,99.90
2022-09-04T01:06:51.696Z,99.90
2022-09-04T01:10:06.394Z,99.90
2022-09-04T01:13:01.201Z,99.90
2022-09-04T01:15:55.248Z,99.90
2022-09-04T01:18:51.245Z,99.90
2022-09-04T01:25:14.375Z,99.90
2022-09-04T01:28:05.307Z,99.90
2022-09-04T01:31:08.859Z,99.90
2022-09-04T01:33:46.598Z,99.90
2022-09-04T01:36:28.513Z,99.90
2022-09-04T01:39:01.833Z,99.90
2022-09-04T01:41:38.818Z,99.90
2022-09-04T01:53:46.343Z,99.90
2022-09-04T01:56:31.036Z,99.90
2022-09-04T01:59:24.412Z,99.90
2022-09-04T02:02:15.111Z,99.90
2022-09-04T02:05:24.880Z,99.90
2022-09-04T02:08:18.387Z,99.90
2022-09-04T02:11:19.118Z,99.90
2022-09-04T02:17:43.311Z,99.90
2022-09-04T02:20:23.722Z,99.90
2022-09-04T02:22:58.081Z,99.90
2022-09-04T02:25:56.685Z,99.90
2022-09-04T02:28:51.044Z,99.90
2022-09-04T02:35:14.602Z,99.90
2022-09-04T02:37:47.827Z,99.90
2022-09-04T02:40:35.148Z,99.90
2022-09-04T02:43:53.422Z,99.90
2022-09-04T02:46:50.125Z,99.90
2022-09-04T02:49:44.442Z,99.90
2022-09-04T02:53:23.924Z,99.90
2022-09-04T02:56:36.212Z,99.90
2022-09-04T02:59:29.472Z,99.90
2022-09-04T03:02:07.253Z,99.90
2022-09-04T03:04:51.984Z,99.90
2022-09-04T03:10:44.606Z,99.90
2022-09-04T03:13:27.561Z,99.90
2022-09-04T03:16:29.226Z,99.90
2022-09-04T03:19:32.384Z,99.90
2022-09-04T03:26:21.841Z,99.90
2022-09-04T03:31:50.470Z,99.90
2022-09-04T03:34:46.236Z,99.90
2022-09-04T03:37:44.503Z,99.90
2022-09-04T03:40:47.140Z,99.90
2022-09-04T03:49:04.395Z,99.90
2022-09-04T03:59:41.377Z,99.90
2022-09-04T04:02:57.685Z,99.90
2022-09-04T04:06:15.392Z,99.90
2022-09-04T04:09:04.890Z,99.90
2022-09-04T04:12:00.562Z,99.90
2022-09-04T04:14:31.157Z,99.90
2022-09-04T04:17:26.863Z,99.90
2022-09-04T04:20:10.881Z,99.90
2022-09-04T04:23:21.674Z,99.90
2022-09-04T04:26:06.631Z,99.90
2022-09-04T04:29:22.932Z,99.90
2022-09-04T04:32:14.032Z,99.90
2022-09-04T04:34:58.661Z,99.90
2022-09-04T04:37:34.737Z,99.90
2022-09-04T04:40:18.938Z,99.90
2022-09-04T04:43:18.734Z,99.90
2022-09-04T04:46:11.883Z,99.90
2022-09-04T04:49:08.192Z,99.90
2022-09-04T04:51:42.534Z,99.90
2022-09-04T04:54:28.313Z,99.90
2022-09-04T04:57:05.430Z,99.90
2022-09-04T05:00:08.361Z,99.90
2022-09-04T05:02:54.708Z,99.90
2022-09-04T05:05:50.330Z,99.90
2022-09-04T05:08:31.406Z,99.90
2022-09-04T05:11:27.099Z,99.90
2022-09-04T05:14:03.674Z,99.90
2022-09-04T05:17:14.530Z,99.90
2022-09-04T05:20:35.260Z,99.90
2022-09-04T05:23:39.254Z,99.90
2022-09-04T05:26:47.439Z,99.90
2022-09-04T05:29:52.882Z,99.90
2022-09-04T05:32:41.079Z,99.90
2022-09-04T05:38:28.759Z,99.90
2022-09-04T05:41:40.974Z,99.90
2022-09-04T05:44:49.593Z,99.90
2022-09-04T05:51:01.967Z,99.90
2022-09-04T05:53:34.810Z,99.90
2022-09-04T05:56:28.572Z,99.90
2022-09-04T05:59:32.422Z,99.90
2022-09-04T06:02:55.512Z,99.90
2022-09-04T06:05:29.036Z,99.90
2022-09-04T06:08:29.050Z,99.90
2022-09-04T06:10:56.273Z,99.90
2022-09-04T06:14:09.928Z,99.70
2022-09-04T06:17:24.887Z,98.70
2022-09-04T06:20:06.672Z,98.10
2022-09-04T06:22:44.220Z,97.50
2022-09-04T06:25:38.817Z,97.20
2022-09-04T06:28:26.054Z,96.90
2022-09-04T06:31:40.986Z,96.50
2022-09-04T06:34:27.515Z,96.10
2022-09-04T06:37:23.059Z,96.00
2022-09-04T06:40:34.632Z,95.90
2022-09-04T06:43:22.407Z,95.70
2022-09-04T06:46:04.298Z,95.80
2022-09-04T06:48:49.656Z,95.90
2022-09-04T06:52:06.070Z,95.90
2022-09-04T06:54:54.308Z,96.00
2022-09-04T06:57:52.996Z,95.90
2022-09-04T07:00:20.825Z,95.90
2022-09-04T07:03:07.427Z,96.00
2022-09-04T07:05:55.849Z,96.10
2022-09-04T07:08:48.128Z,96.20
2022-09-04T07:11:23.861Z,96.20
2022-09-04T07:14:29.964Z,96.60
2022-09-04T07:17:40.261Z,96.30
2022-09-04T07:20:33.692Z,96.50
2022-09-04T07:23:16.444Z,96.50
2022-09-04T07:26:41.195Z,96.50
2022-09-04T07:29:33.096Z,96.50
2022-09-04T07:32:19.113Z,96.60
2022-09-04T07:35:04.856Z,96.60
2022-09-04T07:40:38.321Z,96.60
2022-09-04T07:43:06.395Z,96.70
2022-09-04T07:45:51.615Z,97.00
2022-09-04T07:48:47.336Z,96.60
2022-09-04T07:51:23.151Z,96.70
2022-09-04T07:54:22.324Z,96.80
2022-09-04T07:57:32.089Z,96.80
2022-09-04T08:00:21.467Z,96.80
2022-09-04T08:03:23.566Z,96.80
2022-09-04T08:06:15.038Z,96.80
2022-09-04T08:09:21.351Z,96.90
2022-09-04T08:12:26.196Z,97.10
2022-09-04T08:15:11.956Z,96.70
2022-09-04T08:17:58.138Z,96.70
2022-09-04T08:20:52.970Z,96.60
2022-09-04T08:23:57.278Z,96.40
2022-09-04T08:26:56.316Z,96.40
2022-09-04T08:29:24.040Z,96.40
2022-09-04T08:32:21.052Z,96.50
2022-09-04T08:35:14.576Z,96.30
2022-09-04T08:38:02.754Z,96.30
2022-09-04T08:40:54.205Z,96.10
2022-09-04T08:43:40.523Z,96.00
2022-09-04T08:46:39.584Z,96.10
2022-09-04T08:49:22.048Z,96.00
2022-09-04T08:52:18.615Z,95.90
2022-09-04T08:55:08.230Z,95.90
2022-09-04T08:58:24.662Z,96.10
2022-09-04T09:01:15.363Z,96.20
2022-09-04T09:04:00.831Z,96.10
2022-09-04T09:06:54.152Z,95.90
2022-09-04T09:09:58.671Z,95.80
2022-09-04T09:13:00.441Z,95.80
2022-09-04T09:15:45.975Z,95.70
2022-09-04T09:19:07.031Z,95.60
2022-09-04T09:22:12.800Z,95.40
2022-09-04T09:25:21.448Z,95.40
2022-09-04T09:28:23.672Z,95.10
2022-09-04T09:31:17.223Z,95.20
2022-09-04T09:34:11.763Z,95.20
2022-09-04T09:37:03.204Z,94.90
2022-09-04T09:40:01.713Z,94.90
2022-09-04T09:43:12.602Z,95.10
2022-09-04T09:46:31.461Z,94.80
2022-09-04T09:49:17.220Z,94.50
2022-09-04T09:52:16.997Z,94.10
2022-09-04T09:54:56.662Z,94.30
2022-09-04T09:57:46.072Z,94.20
2022-09-04T10:00:17.818Z,93.60
2022-09-04T10:03:24.467Z,93.20
2022-09-04T10:06:08.158Z,92.70
2022-09-04T10:09:09.590Z,91.50
2022-09-04T10:12:01.610Z,90.90
2022-09-04T10:14:46.793Z,90.20
2022-09-04T10:17:29.808Z,89.20
2022-09-04T10:20:15.309Z,88.10
2022-09-04T10:23:24.523Z,87.50
2022-09-04T10:26:18.934Z,87.70
2022-09-04T10:29:13.659Z,88.00
2022-09-04T10:32:07.119Z,87.70
2022-09-04T10:34:58.185Z,87.90
2022-09-04T10:37:45.423Z,86.80
2022-09-04T10:40:44.467Z,86.20
2022-09-04T10:43:40.143Z,86.40
2022-09-04T10:46:33.832Z,85.90
2022-09-04T10:49:22.477Z,86.10
2022-09-04T10:52:47.518Z,86.50
2022-09-04T10:55:27.683Z,86.20
2022-09-04T10:58:30.950Z,85.30
2022-09-04T11:01:16.990Z,84.80
2022-09-04T11:04:14.171Z,84.20
2022-09-04T11:07:18.307Z,83.80
2022-09-04T11:10:04.657Z,83.30
2022-09-04T11:13:27.431Z,82.70
2022-09-04T11:16:38.187Z,83.10
2022-09-04T11:19:50.281Z,82.00
2022-09-04T11:22:36.240Z,81.30
2022-09-04T11:25:33.437Z,81.50
2022-09-04T11:28:31.393Z,80.80
2022-09-04T11:31:21.247Z,80.30
2022-09-04T11:34:20.532Z,79.90
2022-09-04T11:37:27.295Z,79.60
2022-09-04T11:40:05.389Z,79.50
2022-09-04T11:43:06.220Z,78.80
2022-09-04T11:46:09.141Z,78.70
2022-09-04T11:48:53.032Z,77.90
2022-09-04T11:52:04.333Z,76.80
2022-09-04T11:55:14.225Z,76.20
2022-09-04T11:58:11.542Z,74.90
2022-09-04T12:01:08.506Z,74.20
2022-09-04T12:03:43.412Z,73.00
2022-09-04T12:06:40.237Z,73.20
2022-09-04T12:09:36.614Z,73.10
2022-09-04T12:12:31.328Z,73.40
2022-09-04T12:15:39.379Z,72.50
2022-09-04T12:18:54.602Z,71.10
2022-09-04T12:21:36.290Z,70.30
2022-09-04T12:24:21.955Z,70.60
2022-09-04T12:27:13.429Z,69.60
2022-09-04T12:30:04.674Z,69.20
2022-09-04T12:32:50.239Z,68.20
2022-09-04T12:35:33.976Z,68.20
2022-09-04T12:38:16.389Z,68.30
2022-09-04T12:41:17.023Z,67.60
2022-09-04T12:44:16.869Z,68.50
2022-09-04T12:47:17.838Z,67.30
2022-09-04T12:50:06.083Z,68.00
2022-09-04T12:52:49.009Z,67.70
2022-09-04T12:55:42.276Z,67.30
2022-09-04T12:58:28.877Z,66.60
2022-09-04T13:01:22.822Z,66.60
2022-09-04T13:04:00.172Z,65.80
2022-09-04T13:07:07.081Z,66.10
2022-09-04T13:09:53.302Z,66.10
2022-09-04T13:12:42.724Z,65.10
2022-09-04T13:15:24.735Z,65.70
2022-09-04T13:18:35.178Z,65.20
2022-09-04T13:21:27.204Z,65.60
2022-09-04T13:24:12.401Z,64.90
2022-09-04T13:27:01.808Z,64.80
2022-09-04T13:29:43.136Z,63.50
2022-09-04T13:33:04.325Z,63.40
2022-09-04T13:36:16.820Z,63.30
2022-09-04T13:39:02.994Z,64.00
2022-09-04T13:41:34.027Z,63.50
2022-09-04T13:44:23.265Z,63.50
2022-09-04T13:47:03.952Z,64.10
2022-09-04T13:49:58.784Z,63.50
2022-09-04T13:52:40.095Z,63.00
2022-09-04T13:55:15.940Z,63.20
2022-09-04T14:01:00.610Z,63.50
2022-09-04T14:03:36.779Z,62.70
2022-09-04T14:06:08.360Z,61.90
2022-09-04T14:08:40.170Z,61.80
2022-09-04T14:11:24.438Z,61.90
2022-09-04T14:14:35.471Z,62.10
2022-09-04T14:17:07.181Z,62.00
2022-09-04T14:19:37.561Z,62.40
2022-09-04T14:22:04.681Z,63.00
2022-09-04T14:25:15.151Z,63.50
2022-09-04T14:28:05.895Z,63.80
2022-09-04T14:31:10.787Z,63.50
2022-09-04T14:33:41.932Z,63.60
2022-09-04T14:36:22.429Z,63.60
2022-09-04T14:39:08.203Z,62.90
2022-09-04T14:42:06.756Z,62.70
2022-09-04T14:45:23.631Z,62.40
2022-09-04T14:47:56.002Z,62.80
2022-09-04T14:50:28.719Z,62.90
2022-09-04T14:53:01.555Z,63.20
2022-09-04T14:55:32.435Z,63.10
2022-09-04T14:58:20.006Z,62.80
2022-09-04T15:01:17.455Z,62.70
2022-09-04T15:03:55.720Z,62.00
2022-09-04T15:07:10.377Z,62.40
2022-09-04T15:09:55.022Z,62.30
2022-09-04T15:12:33.977Z,62.50
2022-09-04T15:15:20.421Z,62.50
2022-09-04T15:18:17.226Z,62.80
2022-09-04T15:20:59.048Z,62.50
2022-09-04T15:23:51.086Z,62.70
2022-09-04T15:26:32.581Z,63.00
2022-09-04T15:29:12.878Z,63.30
2022-09-04T15:31:42.195Z,63.80
2022-09-04T15:34:13.123Z,64.00
2022-09-04T15:36:40.966Z,64.50
2022-09-04T15:39:24.435Z,64.70
2022-09-04T15:41:51.671Z,64.70
2022-09-04T15:44:39.834Z,65.10
2022-09-04T15:47:36.777Z,65.50
2022-09-04T15:50:22.907Z,66.00
2022-09-04T15:53:01.129Z,66.60
2022-09-04T15:55:31.820Z,67.20
2022-09-04T15:58:25.320Z,67.30
2022-09-04T16:01:08.412Z,67.20
2022-09-04T16:04:02.043Z,67.20
2022-09-04T16:06:42.882Z,67.30
2022-09-04T16:09:23.459Z,67.60
2022-09-04T16:12:15.026Z,67.20
2022-09-04T16:14:51.402Z,67.00
2022-09-04T16:17:25.609Z,66.80
2022-09-04T16:20:20.643Z,67.00
2022-09-04T16:23:01.016Z,66.60
2022-09-04T16:25:41.149Z,66.80
2022-09-04T16:28:16.110Z,66.60
2022-09-04T16:30:43.510Z,66.80
2022-09-04T16:33:48.700Z,66.70
2022-09-04T16:36:28.853Z,66.60
2022-09-04T16:39:14.680Z,66.60
2022-09-04T16:41:59.196Z,66.90
2022-09-04T16:44:33.355Z,67.30
2022-09-04T16:47:25.765Z,67.50
2022-09-04T16:50:06.078Z,67.60
2022-09-04T16:52:45.502Z,67.60
2022-09-04T16:55:32.414Z,67.80
2022-09-04T16:58:03.853Z,67.70
2022-09-04T17:00:52.086Z,67.90
2022-09-04T17:03:25.305Z,68.80
2022-09-04T17:06:04.252Z,68.00
2022-09-04T17:08:38.312Z,68.40
2022-09-04T17:11:43.694Z,68.70
2022-09-04T17:14:30.530Z,68.90
2022-09-04T17:17:29.964Z,69.00
2022-09-04T17:20:12.113Z,69.20
2022-09-04T17:28:59.591Z,69.90
2022-09-04T17:29:01.869Z,69.50
2022-09-04T17:34:20.856Z,70.40
2022-09-04T17:40:34.729Z,71.80
2022-09-04T17:40:39.586Z,70.60
2022-09-04T17:41:53.062Z,71.30
2022-09-04T17:44:46.410Z,71.70
2022-09-04T17:47:43.090Z,72.00
2022-09-04T17:50:17.634Z,72.20
2022-09-04T17:53:14.659Z,72.50
2022-09-04T17:56:14.318Z,72.90
2022-09-04T17:58:53.058Z,73.20
2022-09-04T18:01:29.877Z,73.50
2022-09-04T18:04:38.303Z,73.70
2022-09-04T18:07:28.925Z,74.00
2022-09-04T18:10:19.169Z,74.30
2022-09-04T18:13:36.551Z,74.50
2022-09-04T18:16:11.984Z,74.70
2022-09-04T18:19:11.558Z,74.80
2022-09-04T18:21:59.210Z,75.00
2022-09-04T18:24:39.054Z,75.00
2022-09-04T18:27:19.263Z,75.00
2022-09-04T18:33:50.498Z,75.00
2022-09-04T18:37:20.593Z,75.00
2022-09-04T18:37:26.388Z,75.10
2022-09-04T18:39:09.722Z,75.20
2022-09-04T18:49:08.533Z,75.40
2022-09-04T18:50:28.033Z,75.50
2022-09-04T18:50:46.762Z,75.50
2022-09-04T18:51:26.660Z,75.70
2022-09-04T18:54:22.872Z,75.70
2022-09-04T18:57:01.342Z,75.80
2022-09-04T18:59:43.515Z,75.80
2022-09-04T19:02:29.429Z,75.80
2022-09-04T19:05:15.463Z,75.80
2022-09-04T19:07:48.298Z,75.90
2022-09-04T19:10:37.593Z,75.90
2022-09-04T19:13:29.986Z,76.00
2022-09-04T19:16:26.828Z,76.10
2022-09-04T19:19:11.178Z,76.10
2022-09-04T19:22:06.210Z,76.20
2022-09-04T19:24:53.745Z,76.20
2022-09-04T19:27:45.300Z,76.30
2022-09-04T19:30:20.036Z,76.30
2022-09-04T19:33:00.087Z,76.60
2022-09-04T19:35:41.832Z,76.70
2022-09-04T19:43:30.461Z,76.60
2022-09-04T19:46:03.258Z,76.70
2022-09-04T19:46:11.432Z,76.80
2022-09-04T19:47:27.329Z,77.00
2022-09-04T19:53:31.896Z,77.10
2022-09-04T19:53:46.965Z,77.40
2022-09-04T19:56:26.147Z,77.50
2022-09-04T19:59:14.315Z,77.70
2022-09-04T20:02:02.834Z,77.90
2022-09-04T20:04:42.069Z,77.80
2022-09-04T20:07:17.869Z,77.80
2022-09-04T20:09:55.369Z,78.00
2022-09-04T20:12:37.714Z,78.00
2022-09-04T20:15:15.086Z,78.10
2022-09-04T20:18:04.323Z,78.40
2022-09-04T20:20:52.725Z,78.60
2022-09-04T20:23:55.217Z,79.10
2022-09-04T20:26:28.598Z,79.40
2022-09-04T20:29:00.116Z,79.90
2022-09-04T20:31:36.363Z,80.40
2022-09-04T20:34:17.763Z,81.00
2022-09-04T20:36:50.283Z,81.60
2022-09-04T20:39:53.564Z,82.70
2022-09-04T20:42:26.704Z,82.40
2022-09-04T20:47:17.617Z,82.70
2022-09-04T20:52:49.399Z,83.20
2022-09-04T20:52:58.059Z,83.70
2022-09-04T20:54:03.812Z,84.10
2022-09-04T21:00:50.156Z,84.60
2022-09-04T21:03:07.791Z,85.10
2022-09-04T21:03:29.447Z,85.50
2022-09-04T21:06:13.099Z,85.90
2022-09-04T21:09:06.067Z,86.20
2022-09-04T21:11:42.058Z,86.70
2022-09-04T21:14:45.450Z,87.00
2022-09-04T21:17:47.587Z,87.40
2022-09-04T21:21:01.012Z,87.70
2022-09-04T21:23:56.474Z,88.10
2022-09-04T21:26:48.845Z,88.40
2022-09-04T21:29:37.870Z,88.90
2022-09-04T21:32:52.714Z,89.20
2022-09-04T21:35:29.930Z,89.60
2022-09-04T21:38:00.053Z,89.90
2022-09-04T21:40:58.085Z,90.10
2022-09-04T21:43:40.474Z,90.20
2022-09-04T21:46:11.595Z,90.40
2022-09-04T21:48:57.264Z,90.50
2022-09-04T21:51:42.125Z,90.60
2022-09-04T21:54:18.436Z,90.80
2022-09-04T22:02:25.186Z,90.90
2022-09-04T22:02:38.970Z,91.00
2022-09-04T22:03:42.446Z,91.10
2022-09-04T22:06:49.440Z,91.20
2022-09-04T22:13:32.291Z,91.30
2022-09-04T22:13:45.649Z,91.40
2022-09-04T22:15:57.256Z,91.40
2022-09-04T22:18:45.838Z,91.40
2022-09-04T22:21:38.276Z,91.50
2022-09-04T22:24:28.727Z,91.60
2022-09-04T22:27:35.501Z,91.70
2022-09-04T22:30:22.508Z,91.80
2022-09-04T22:33:16.004Z,91.80
2022-09-04T22:35:55.539Z,91.90
2022-09-04T22:38:25.793Z,92.00
2022-09-04T22:41:01.839Z,92.00
2022-09-04T22:43:46.845Z,92.10
2022-09-04T22:46:36.239Z,92.20
2022-09-04T22:49:33.233Z,92.30
2022-09-04T22:52:23.549Z,92.30
2022-09-04T22:55:17.550Z,92.40
2022-09-04T22:58:30.812Z,92.40
2022-09-04T23:01:32.874Z,92.40
2022-09-04T23:04:24.415Z,92.50
2022-09-04T23:12:02.196Z,92.60
2022-09-04T23:14:01.899Z,92.70
2022-09-04T23:14:05.380Z,92.80
2022-09-04T23:16:52.370Z,92.90
2022-09-04T23:24:05.990Z,92.90
2022-09-04T23:26:35.203Z,93.10
2022-09-04T23:26:42.222Z,93.20
2022-09-04T23:29:21.312Z,93.30
2022-09-04T23:32:22.555Z,93.40
2022-09-04T23:35:47.918Z,93.90
2022-09-04T23:38:15.227Z,93.70
2022-09-04T23:40:51.931Z,93.70
2022-09-04T23:44:05.261Z,93.80
2022-09-04T23:47:09.706Z,93.90
2022-09-04T23:50:17.880Z,94.00
2022-09-04T23:53:03.588Z,94.00
2022-09-04T23:56:05.973Z,94.10
2022-09-04T23:59:21.207Z,94.20
